Decoded Metar for KMAW ( in ) (IATA:) | Meteo·Mobile Aviation Weather
aviador You're here:

KMAW Decoded Metar

in
Report Time2019-09-23 09:15:00
UTC Time2019-09-23 09:03:25
Flight Rules vfr VFR
Wind210° at 07 kt
W.Decomp.*RWY 18: 6.1 kt HW 3.5 kt RCW
RWY 14: 2.4 kt HW 6.6 kt RCW
Visibility9999 m
Phenomena:N/A
Clouds:N/A
Expected CloudBase > 2,400 ft AGL from Temp-Dew spread
CeilingNone
Temp25°C
Dew Point19°C (69% RH)
QNH1016 hPa
Raw Report
KMAW 230915Z AUTO 21007KT 10SM CLR 25/19 A3000 RMK AO2=

Extra information for KMAW:More info

Social comments